Aérodrome :
LOGIN :

S'inscrire | Disclaimer

   EN    FR    IT 

 










Légende :    VFR   VFR Marginal   IFR   IFR Intensif   IFR Très Intensif
Visi : 
Plafond : 
>= 8 km
>= 3000ft
5 à 8 km
1000 à 3000 ft
1500m à 5 km
500 à 1000 ft
800 à 1500m
200 à 500 ft
< 800m
< 200 ft
Symboles :   Orages  Brouillard  Fortes neiges  Fortes précipitations  Vent > 20 kt
SIGMETs :   Divers  Orages  Givrage  Turbulence  Onde Orograph.  Cendres Volcan.






- Altitude de l'aérodrome : 1367 ft
- Code IATA : FDH


EDNY - Friedrichshafen

DERNIER METAR :
  • 062220Z AUTO VRB02KT 9999 2600 // NCD 07/02 Q1026

METARs EXPIRÉS :
  • 062150Z AUTO 08002KT 9999 // NCD 08/02 Q1026
  • 062120Z AUTO 00000KT 9999 // NCD 08/02 Q1026
  • 062050Z AUTO VRB01KT 9999 // NCD 09/02 Q1026
  • 062020Z AUTO VRB02KT 9999 // NCD 10/02 Q1025
  • 061950Z AUTO VRB02KT 9999 // NCD 11/01 Q1025

TAF TAF EDNY
Valide du 06 à 18h jusqu'au 07 à 18h UTC


061700Z 0618/0718 VRB03KT CAVOK
BECMG 0708/0710 04008KT



MET'MAP, la Météo Aéronautique d'un coup d'oeil ! - Copyright ORBIFLY Décembre 2007 - Disclaimer

ORBIFLY MET'MAP TEAM :

Programmation & Développement : Alexandra Zaïnal
Sur une idée originale de : Baudouin d'Aumeries
Assistance à la programmation : Marc-Olivier Méhu
Soutien technique & logistique : Manuel Goepfert

Contact : metmap@orbifly.com




SOURCES & CREDITS :

   NOAA